| time (UTC) | temp F | wind direction | speed knots | gust knots | rain 1hr in | rain 24hr in | rain mn in | humidity % | barometer mb |
| 20260504000505 | 69 | 225 | 3.5 | 8.7 | 0.00 | 0.05 | 0.05 | 46 | 950.1 |
| 20260504000005 | 69 | 220 | 2.6 | 8.7 | 0.00 | 0.05 | 0.05 | 46 | 950.1 |
| 20260503235505 | 69 | 237 | 3.5 | 8.7 | 0.00 | 0.05 | 0.05 | 45 | 950.2 |
| 20260503235007 | 69 | 242 | 3.5 | 8.7 | 0.00 | 0.05 | 0.05 | 46 | 950.1 |
| 20260503234505 | 69 | 259 | 5.2 | 11.3 | 0.00 | 0.05 | 0.05 | 46 | 950.2 |
| 20260503234008 | 70 | 265 | 7.0 | 12.2 | 0.00 | 0.05 | 0.05 | 44 | 950.3 |
| 20260503233504 | 70 | 265 | 6.1 | 12.2 | 0.00 | 0.05 | 0.05 | 45 | 950.1 |
| 20260503233005 | 70 | 259 | 7.0 | 11.3 | 0.00 | 0.05 | 0.05 | 45 | 950.2 |
| 20260503232503 | 70 | 247 | 6.1 | 10.4 | 0.00 | 0.05 | 0.05 | 44 | 950.2 |
| 20260503232003 | 70 | 250 | 7.0 | 13.0 | 0.00 | 0.05 | 0.05 | 44 | 950.3 |
| 20260503231503 | 70 | 250 | 7.0 | 15.6 | 0.00 | 0.05 | 0.05 | 45 | 950.4 |
| 20260503231004 | 70 | 272 | 9.6 | 15.6 | 0.00 | 0.05 | 0.05 | 45 | 950.3 |
| 20260503230502 | 70 | 248 | 8.7 | 13.9 | 0.00 | 0.05 | 0.05 | 45 | 950.4 |
| 20260503230003 | 70 | 245 | 6.1 | 11.3 | 0.00 | 0.05 | 0.05 | 45 | 950.5 |
| 20260503225600 | 70 | 217 | 8.7 | 11.3 | 0.00 | 0.05 | 0.05 | 45 | 950.5 |
| 20260503225101 | 70 | 257 | 9.6 | 13.9 | 0.00 | 0.05 | 0.05 | 44 | 950.5 |
| 20260503225002 | 70 | 235 | 8.7 | 13.9 | 0.00 | 0.05 | 0.05 | 45 | 950.5 |
| 20260503224559 | 70 | 250 | 10.4 | 14.8 | 0.00 | 0.05 | 0.05 | 45 | 950.6 |
| 20260503224059 | 70 | 256 | 8.7 | 14.8 | 0.00 | 0.05 | 0.05 | 44 | 950.6 |
| 20260503223558 | 70 | 269 | 9.6 | 16.5 | 0.00 | 0.05 | 0.05 | 44 | 950.6 |
| 20260503223058 | 70 | 260 | 11.3 | 16.5 | 0.00 | 0.05 | 0.05 | 45 | 950.7 |
| 20260503222601 | 70 | 236 | 8.7 | 16.5 | 0.00 | 0.05 | 0.05 | 47 | 950.6 |
| 20260503222057 | 70 | 267 | 11.3 | 14.8 | 0.00 | 0.05 | 0.05 | 45 | 950.7 |
| 20260503221557 | 70 | 263 | 7.8 | 15.6 | 0.00 | 0.05 | 0.05 | 45 | 950.7 |
| 20260503221059 | 69 | 238 | 12.2 | 15.6 | 0.00 | 0.05 | 0.05 | 45 | 950.7 |
| 20260503220556 | 69 | 250 | 6.1 | 15.6 | 0.00 | 0.05 | 0.05 | 47 | 950.8 |
| 20260503220156 | 69 | 242 | 9.6 | 19.1 | 0.00 | 0.05 | 0.05 | 47 | 950.7 |
| 20260503215554 | 69 | 242 | 7.0 | 13.0 | 0.00 | 0.05 | 0.05 | 46 | 950.7 |
| 20260503215053 | 69 | 265 | 7.8 | 13.0 | 0.00 | 0.05 | 0.05 | 48 | 950.7 |
| 20260503214554 | 69 | 251 | 8.7 | 16.5 | 0.00 | 0.05 | 0.05 | 47 | 950.7 |
| 20260503214052 | 69 | 257 | 11.3 | 17.4 | 0.00 | 0.05 | 0.05 | 47 | 950.8 |
| 20260503213556 | 69 | 288 | 12.2 | 18.2 | 0.00 | 0.05 | 0.05 | 47 | 950.7 |
| 20260503213052 | 69 | 239 | 13.9 | 18.2 | 0.00 | 0.05 | 0.05 | 46 | 950.7 |
| 20260503212552 | 68 | 258 | 12.2 | 20.9 | 0.00 | 0.05 | 0.05 | 47 | 950.9 |
| 20260503212050 | 69 | 223 | 8.7 | 14.8 | 0.00 | 0.05 | 0.05 | 48 | 950.9 |
| 20260503211604 | 68 | 206 | 9.6 | 14.8 | 0.00 | 0.05 | 0.05 | 47 | 950.9 |
| 20260503211052 | 68 | 231 | 7.8 | 14.8 | 0.00 | 0.05 | 0.05 | 47 | 950.9 |
| 20260503210548 | 68 | 245 | 10.4 | 21.7 | 0.00 | 0.05 | 0.05 | 48 | 951.1 |
| 20260503210049 | 68 | 244 | 11.3 | 21.7 | 0.00 | 0.05 | 0.05 | 47 | 951.1 |
| 20260503205546 | 68 | 218 | 9.6 | 18.2 | 0.00 | 0.05 | 0.05 | 47 | 951.2 |
| 20260503205048 | 67 | 218 | 9.6 | 17.4 | 0.00 | 0.05 | 0.05 | 48 | 951.3 |
| 20260503204552 | 67 | 211 | 10.4 | 19.1 | 0.00 | 0.05 | 0.05 | 47 | 951.3 |
| 20260503204044 | 67 | 263 | 11.3 | 16.5 | 0.00 | 0.05 | 0.05 | 46 | 951.3 |
| 20260503203543 | 67 | 221 | 9.6 | 16.5 | 0.00 | 0.05 | 0.05 | 47 | 951.3 |
| 20260503203041 | 67 | 155 | 9.6 | 19.1 | 0.00 | 0.05 | 0.05 | 49 | 951.5 |
| 20260503202543 | 67 | 217 | 11.3 | 20.9 | 0.00 | 0.05 | 0.05 | 49 | 951.5 |
| 20260503202041 | 67 | 221 | 10.4 | 20.9 | 0.00 | 0.05 | 0.05 | 48 | 951.6 |
| 20260503201540 | 66 | 227 | 11.3 | 22.6 | 0.00 | 0.05 | 0.05 | 48 | 951.8 |
| 20260503201038 | 66 | 227 | 11.3 | 22.6 | 0.00 | 0.05 | 0.05 | 48 | 951.8 |
| 20260503200536 | 66 | 242 | 13.9 | 22.6 | 0.00 | 0.05 | 0.05 | 50 | 951.8 |
| 20260503200037 | 66 | 244 | 11.3 | 20.0 | 0.00 | 0.05 | 0.05 | 49 | 952.0 |
| 20260503195536 | 66 | 360 | 9.6 | 20.9 | 0.00 | 0.05 | 0.05 | 49 | 952.0 |
| 20260503195035 | 65 | 360 | 12.2 | 20.9 | 0.00 | 0.05 | 0.05 | 50 | 952.0 |
| 20260503194534 | 65 | 360 | 11.3 | 18.2 | 0.00 | 0.05 | 0.05 | 49 | 952.3 |
| 20260503194035 | 65 | 360 | 11.3 | 18.2 | 0.00 | 0.05 | 0.05 | 50 | 952.2 |
| 20260503193532 | 65 | 360 | 7.0 | 21.7 | 0.00 | 0.05 | 0.05 | 49 | 952.2 |
| 20260503193036 | 65 | 360 | 14.8 | 21.7 | 0.00 | 0.05 | 0.05 | 49 | 952.4 |
| 20260503192531 | 65 | 360 | 10.4 | 20.9 | 0.00 | 0.05 | 0.05 | 50 | 952.5 |
| 20260503192030 | 65 | 360 | 9.6 | 22.6 | 0.00 | 0.05 | 0.05 | 51 | 952.7 |
| 20260503191532 | 65 | 360 | 14.8 | 22.6 | 0.00 | 0.05 | 0.05 | 49 | 952.7 |
| 20260503191030 | 65 | 360 | 14.8 | 20.0 | 0.00 | 0.05 | 0.05 | 49 | 952.8 |
| 20260503190530 | 65 | 360 | 10.4 | 20.9 | 0.00 | 0.05 | 0.05 | 52 | 952.8 |
| 20260503190028 | 65 | 360 | 13.9 | 20.9 | 0.00 | 0.05 | 0.05 | 50 | 952.9 |
| 20260503185527 | 65 | 360 | 9.6 | 21.7 | 0.00 | 0.05 | 0.05 | 50 | 952.9 |
| 20260503185026 | 64 | 360 | 9.6 | 21.7 | 0.00 | 0.05 | 0.05 | 49 | 952.9 |
| 20260503184527 | 64 | 360 | 10.4 | 21.7 | 0.00 | 0.05 | 0.05 | 49 | 953.1 |
| 20260503184024 | 64 | 360 | 13.0 | 21.7 | 0.00 | 0.05 | 0.05 | 51 | 953.0 |
| 20260503183523 | 63 | 360 | 14.8 | 26.9 | 0.00 | 0.05 | 0.05 | 51 | 953.1 |
| 20260503183032 | 62 | 360 | 9.6 | 26.9 | 0.00 | 0.05 | 0.05 | 57 | 953.1 |
| 20260503182520 | 62 | 360 | 9.6 | 16.5 | 0.00 | 0.05 | 0.05 | 58 | 953.2 |
| 20260503182019 | 62 | 360 | 7.8 | 19.1 | 0.00 | 0.05 | 0.05 | 57 | 953.3 |
| 20260503181527 | 62 | 360 | 9.6 | 19.1 | 0.00 | 0.05 | 0.05 | 58 | 953.5 |
| 20260503181019 | 61 | 360 | 7.8 | 21.7 | 0.00 | 0.05 | 0.05 | 59 | 953.4 |
| 20260503180519 | 61 | 360 | 12.2 | 21.7 | 0.00 | 0.05 | 0.05 | 56 | 953.6 |
| 20260503180017 | 61 | 360 | 9.6 | 23.5 | 0.00 | 0.05 | 0.05 | 57 | 953.6 |
| 20260503175515 | 61 | 360 | 11.3 | 23.5 | 0.00 | 0.05 | 0.05 | 56 | 953.7 |
| 20260503175014 | 61 | 360 | 11.3 | 20.0 | 0.00 | 0.05 | 0.05 | 57 | 953.7 |
| 20260503174516 | 61 | 360 | 8.7 | 21.7 | 0.00 | 0.05 | 0.05 | 57 | 953.7 |
| 20260503174013 | 61 | 360 | 15.6 | 21.7 | 0.00 | 0.05 | 0.05 | 53 | 953.9 |
| 20260503173512 | 61 | 360 | 5.2 | 18.2 | 0.00 | 0.05 | 0.05 | 60 | 953.8 |
| 20260503173036 | 61 | 360 | 7.0 | 18.2 | 0.00 | 0.05 | 0.05 | 59 | 953.8 |
| 20260503172511 | 60 | 360 | 7.0 | 15.6 | 0.00 | 0.05 | 0.05 | 60 | 953.9 |
| 20260503172010 | 60 | 360 | 8.7 | 19.1 | 0.00 | 0.05 | 0.05 | 58 | 953.8 |
| 20260503171512 | 60 | 360 | 8.7 | 19.1 | 0.00 | 0.05 | 0.05 | 60 | 953.8 |
| 20260503171007 | 59 | 360 | 7.8 | 21.7 | 0.00 | 0.05 | 0.05 | 60 | 953.9 |
| 20260503170506 | 59 | 360 | 10.4 | 21.7 | 0.00 | 0.05 | 0.05 | 59 | 954.0 |
| 20260503150540 | 48 | 360 | 2.6 | 7.8 | 0.03 | 0.04 | 0.04 | 84 | 956.4 |
| 20260503131026 | 50 | 360 | 4.3 | 10.4 | 0.00 | 0.00 | 0.00 | 67 | 957.4 |
| 20260503130524 | 50 | 360 | 5.2 | 11.3 | 0.00 | 0.00 | 0.00 | 67 | 957.5 |
| 20260503110504 | 47 | 360 | 4.3 | 12.2 | 0.00 | 0.00 | 0.00 | 63 | 957.4 |
| 20260503100115 | 47 | 360 | 6.1 | 9.6 | 0.00 | 0.00 | 0.00 | 61 | 957.5 |
| 20260503081544 | 46 | 360 | 2.6 | 5.2 | 0.00 | 0.00 | 0.00 | 60 | 958.1 |
| 20260503081043 | 46 | 360 | 1.7 | 7.0 | 0.00 | 0.00 | 0.00 | 61 | 958.1 |
| 20260503080545 | 46 | 360 | 2.6 | 7.0 | 0.00 | 0.00 | 0.00 | 61 | 958.1 |
| 20260503072542 | 46 | 360 | 1.7 | 5.2 | 0.00 | 0.00 | 0.00 | 59 | 958.3 |
| 20260503072038 | 46 | 360 | 0.9 | 7.0 | 0.00 | 0.00 | 0.00 | 59 | 958.3 |
| 20260503071538 | 46 | 360 | 2.6 | 7.0 | 0.00 | 0.00 | 0.00 | 59 | 958.2 |
| 20260503071036 | 46 | 360 | 2.6 | 7.0 | 0.00 | 0.00 | 0.00 | 59 | 958.3 |
| 20260503070535 | 46 | 360 | 1.7 | 7.0 | 0.00 | 0.00 | 0.00 | 59 | 958.3 |
| 20260503055026 | 47 | 360 | 2.6 | 5.2 | 0.00 | 0.00 | 0.00 | 58 | 958.8 |
| 20260503054528 | 47 | 360 | 2.6 | 5.2 | 0.00 | 0.00 | 0.00 | 58 | 958.8 |
| 20260503054025 | 47 | 360 | 2.6 | 5.2 | 0.00 | 0.00 | 0.00 | 58 | 958.9 |
| 20260503053524 | 46 | 360 | 2.6 | 4.3 | 0.00 | 0.00 | 0.00 | 58 | 958.9 |
| 20260503053034 | 46 | 360 | 1.7 | 4.3 | 0.00 | 0.00 | 0.00 | 59 | 959.0 |
| 20260503052530 | 46 | 360 | 2.6 | 4.3 | 0.00 | 0.00 | 0.00 | 59 | 959.0 |
| 20260503052021 | 46 | 360 | 1.7 | 5.2 | 0.00 | 0.00 | 0.00 | 59 | 959.0 |
| 20260503051522 | 46 | 360 | 2.6 | 5.2 | 0.00 | 0.00 | 0.00 | 59 | 959.1 |
| 20260503051019 | 46 | 360 | 1.7 | 7.0 | 0.00 | 0.00 | 0.00 | 58 | 959.1 |
| 20260503050518 | 47 | 360 | 3.5 | 7.0 | 0.00 | 0.00 | 0.00 | 59 | 959.1 |
| 20260503050017 | 47 | 360 | 2.6 | 7.0 | 0.00 | 0.00 | 0.00 | 58 | 959.2 |
| 20260503045517 | 47 | 360 | 2.6 | 7.0 | 0.00 | 0.00 | 0.00 | 58 | 959.2 |
| 20260503045016 | 47 | 360 | 2.6 | 7.0 | 0.00 | 0.00 | 0.00 | 58 | 959.2 |
| 20260503044536 | 47 | 360 | 2.6 | 7.0 | 0.00 | 0.00 | 0.00 | 58 | 959.2 |
| 20260503044018 | 47 | 360 | 1.7 | 7.0 | 0.00 | 0.00 | 0.00 | 58 | 959.3 |
| 20260503043515 | 47 | 360 | 2.6 | 5.2 | 0.00 | 0.00 | 0.00 | 58 | 959.3 |
| 20260503043015 | 47 | 360 | 2.6 | 5.2 | 0.00 | 0.00 | 0.00 | 58 | 959.3 |
| 20260503042515 | 47 | 360 | 2.6 | 5.2 | 0.00 | 0.00 | 0.00 | 58 | 959.3 |
| 20260503042015 | 47 | 360 | 2.6 | 5.2 | 0.00 | 0.00 | 0.00 | 57 | 959.4 |
| 20260503041515 | 47 | 360 | 3.5 | 5.2 | 0.00 | 0.00 | 0.00 | 57 | 959.5 |
| 20260503041018 | 47 | 360 | 2.6 | 7.8 | 0.00 | 0.00 | 0.00 | 57 | 959.3 |
| 20260503040514 | 47 | 360 | 2.6 | 7.8 | 0.00 | 0.00 | 0.00 | 57 | 959.3 |
| 20260503040017 | 47 | 360 | 1.7 | 7.8 | 0.00 | 0.00 | 0.00 | 57 | 959.4 |
| 20260503035513 | 47 | 360 | 2.6 | 7.8 | 0.00 | 0.00 | 0.00 | 57 | 959.6 |
| 20260503035013 | 47 | 360 | 2.6 | 7.0 | 0.00 | 0.00 | 0.00 | 57 | 959.6 |
| 20260503034513 | 47 | 360 | 2.6 | 7.0 | 0.00 | 0.00 | 0.00 | 57 | 959.6 |
| 20260503034012 | 47 | 360 | 2.6 | 4.3 | 0.00 | 0.00 | 0.00 | 57 | 959.7 |
| 20260503033512 | 47 | 360 | 1.7 | 4.3 | 0.00 | 0.00 | 0.00 | 56 | 959.6 |
| 20260503033014 | 48 | 360 | 2.6 | 4.3 | 0.00 | 0.00 | 0.00 | 56 | 959.7 |
| 20260503032512 | 48 | 360 | 1.7 | 5.2 | 0.00 | 0.00 | 0.00 | 56 | 959.7 |
| 20260503032017 | 48 | 360 | 1.7 | 5.2 | 0.00 | 0.00 | 0.00 | 56 | 959.8 |
| 20260503031513 | 48 | 360 | 1.7 | 5.2 | 0.00 | 0.00 | 0.00 | 56 | 959.7 |
| 20260503031013 | 48 | 360 | 0.9 | 3.5 | 0.00 | 0.00 | 0.00 | 55 | 959.9 |
| 20260503030512 | 48 | 360 | 1.7 | 3.5 | 0.00 | 0.00 | 0.00 | 55 | 960.0 |
| 20260503030012 | 48 | 360 | 1.7 | 4.3 | 0.00 | 0.00 | 0.00 | 55 | 959.9 |
| 20260503025512 | 48 | 360 | 1.7 | 4.3 | 0.00 | 0.00 | 0.00 | 55 | 959.9 |
| 20260503025011 | 49 | 360 | 1.7 | 3.5 | 0.00 | 0.00 | 0.00 | 55 | 959.9 |
| 20260503024511 | 49 | 360 | 1.7 | 3.5 | 0.00 | 0.00 | 0.00 | 54 | 959.9 |
| 20260503024011 | 49 | 360 | 0.9 | 3.5 | 0.00 | 0.00 | 0.00 | 55 | 959.9 |
| 20260503023511 | 49 | 360 | 1.7 | 4.3 | 0.00 | 0.00 | 0.00 | 54 | 959.9 |
| 20260503023011 | 49 | 360 | 1.7 | 4.3 | 0.00 | 0.00 | 0.00 | 53 | 959.9 |
| 20260503022510 | 49 | 360 | 0.9 | 3.5 | 0.00 | 0.00 | 0.00 | 54 | 959.9 |
| 20260503022015 | 49 | 360 | 0.9 | 3.5 | 0.00 | 0.00 | 0.00 | 54 | 959.8 |
| 20260503021517 | 49 | 360 | 1.7 | 4.3 | 0.00 | 0.00 | 0.00 | 54 | 959.7 |
| 20260503021020 | 50 | 360 | 1.7 | 4.3 | 0.00 | 0.00 | 0.00 | 53 | 959.8 |
| 20260503020512 | 50 | 360 | 0.9 | 3.5 | 0.00 | 0.00 | 0.00 | 53 | 959.7 |
| 20260503020009 | 50 | 360 | 1.7 | 2.6 | 0.00 | 0.00 | 0.00 | 52 | 959.7 |
| 20260503015512 | 50 | 360 | 0.9 | 3.5 | 0.00 | 0.00 | 0.00 | 52 | 959.7 |
| 20260503015014 | 51 | 360 | 0.9 | 3.5 | 0.00 | 0.00 | 0.00 | 51 | 959.5 |
| 20260503014508 | 51 | 360 | 0.9 | 2.6 | 0.00 | 0.00 | 0.00 | 51 | 959.5 |
| 20260503014008 | 51 | 360 | 0.9 | 3.5 | 0.00 | 0.00 | 0.00 | 50 | 959.4 |
| 20260503013510 | 51 | 360 | 0.9 | 4.3 | 0.00 | 0.00 | 0.00 | 50 | 959.4 |
| 20260503013008 | 52 | 360 | 1.7 | 5.2 | 0.00 | 0.00 | 0.00 | 50 | 959.5 |
| 20260503012511 | 52 | 360 | 1.7 | 4.3 | 0.00 | 0.00 | 0.00 | 48 | 959.4 |
| 20260503012010 | 52 | 360 | 1.7 | 4.3 | 0.00 | 0.00 | 0.00 | 48 | 959.4 |
| 20260503011507 | 52 | 360 | 1.7 | 5.2 | 0.00 | 0.00 | 0.00 | 47 | 959.4 |
| 20260503011007 | 53 | 360 | 1.7 | 5.2 | 0.00 | 0.00 | 0.00 | 47 | 959.4 |
| 20260503010510 | 53 | 360 | 2.6 | 4.3 | 0.00 | 0.00 | 0.00 | 46 | 959.4 |
| 20260503010006 | 53 | 360 | 1.7 | 4.3 | 0.00 | 0.00 | 0.00 | 45 | 959.5 |
| 20260503005506 | 54 | 360 | 1.7 | 8.7 | 0.00 | 0.00 | 0.00 | 44 | 959.5 |
| 20260503005005 | 54 | 360 | 3.5 | 8.7 | 0.00 | 0.00 | 0.00 | 43 | 959.5 |
| 20260503004504 | 54 | 360 | 2.6 | 7.0 | 0.00 | 0.00 | 0.00 | 43 | 959.5 |
| 20260503004004 | 55 | 360 | 3.5 | 7.0 | 0.00 | 0.00 | 0.00 | 43 | 959.5 |
| 20260503003506 | 55 | 360 | 4.3 | 7.8 | 0.00 | 0.00 | 0.00 | 43 | 959.5 |
| 20260503003004 | 55 | 360 | 4.3 | 7.8 | 0.00 | 0.00 | 0.00 | 43 | 959.5 |
| 20260503002503 | 55 | 360 | 3.5 | 9.6 | 0.00 | 0.00 | 0.00 | 42 | 959.6 |
| 20260503002004 | 56 | 360 | 5.2 | 9.6 | 0.00 | 0.00 | 0.00 | 41 | 959.7 |
| 20260503001505 | 56 | 360 | 4.3 | 11.3 | 0.00 | 0.00 | 0.00 | 41 | 959.6 |
| 20260503001002 | 56 | 360 | 7.8 | 12.2 | 0.00 | 0.00 | 0.00 | 40 | 959.6 |